createdAt,value
2023-04-29T04:04:04.907Z,80.45
2023-04-29T04:08:10.866Z,80.63
2023-04-29T04:12:38.787Z,80.66
2023-04-29T04:16:41.470Z,80.85
2023-04-29T04:20:45.500Z,80.42
2023-04-29T04:24:48.224Z,80.86
2023-04-29T04:28:50.853Z,80.39
2023-04-29T04:33:22.694Z,80.92
2023-04-29T04:37:26.659Z,81.65
2023-04-29T04:41:32.738Z,82.80
2023-04-29T04:45:36.692Z,83.11
2023-04-29T04:49:39.705Z,82.76
2023-04-29T04:53:44.326Z,82.85
2023-04-29T04:58:06.504Z,84.37
2023-04-29T05:02:09.561Z,85.63
2023-04-29T05:06:12.346Z,86.52
2023-04-29T05:10:18.535Z,87.20
2023-04-29T05:14:25.430Z,87.69
2023-04-29T05:18:28.024Z,86.98
2023-04-29T05:22:30.650Z,85.75
2023-04-29T05:26:34.606Z,85.25
2023-04-29T05:30:38.669Z,84.09
2023-04-29T05:34:42.163Z,83.90
2023-04-29T05:38:45.308Z,83.50
2023-04-29T05:42:49.352Z,82.65
2023-04-29T05:47:33.104Z,82.23
2023-04-29T05:51:35.775Z,82.65
2023-04-29T05:55:38.890Z,82.53
2023-04-29T05:59:42.812Z,82.52
2023-04-29T06:03:45.897Z,82.23
2023-04-29T06:08:05.742Z,82.23
2023-04-29T06:12:34.337Z,80.36
2023-04-29T06:16:38.520Z,79.67
2023-04-29T06:20:41.248Z,79.88
2023-04-29T06:24:43.845Z,79.10
2023-04-29T06:28:49.116Z,78.94
2023-04-29T06:32:53.573Z,78.52
2023-04-29T06:36:56.498Z,78.16
2023-04-29T06:41:19.043Z,78.27
2023-04-29T06:45:24.944Z,78.55
2023-04-29T06:49:47.140Z,78.75
2023-04-29T06:53:49.731Z,79.49
2023-04-29T06:57:52.224Z,79.72
2023-04-29T07:01:54.944Z,79.15
2023-04-29T07:05:58.812Z,79.88
2023-04-29T07:10:01.323Z,79.67
2023-04-29T07:14:03.883Z,79.35
2023-04-29T07:18:07.088Z,79.38
2023-04-29T07:22:11.371Z,78.81
2023-04-29T07:26:15.957Z,78.11
2023-04-29T07:30:20.512Z,78.31
2023-04-29T07:34:23.125Z,77.83
2023-04-29T07:38:27.254Z,77.29
2023-04-29T07:42:29.801Z,77.36
2023-04-29T07:46:32.442Z,78.44
2023-04-29T07:50:36.537Z,77.81
2023-04-29T07:54:40.421Z,78.31
2023-04-29T07:58:42.941Z,78.03
2023-04-29T08:02:46.122Z,78.28
2023-04-29T08:06:51.192Z,78.34
2023-04-29T08:10:55.065Z,78.46
2023-04-29T08:14:57.633Z,78.73
2023-04-29T08:19:00.304Z,78.38
2023-04-29T08:23:02.911Z,78.65
2023-04-29T08:27:06.898Z,79.72
2023-04-29T08:31:10.711Z,79.70
2023-04-29T08:35:13.813Z,79.74
2023-04-29T08:39:16.338Z,79.54
2023-04-29T08:43:22.550Z,79.03
2023-04-29T08:47:25.313Z,78.14
2023-04-29T08:51:28.102Z,77.91
2023-04-29T08:55:30.972Z,76.19
2023-04-29T08:59:35.089Z,76.96
2023-04-29T09:03:44.214Z,77.04
2023-04-29T09:07:47.638Z,76.61
2023-04-29T09:11:50.188Z,76.78
2023-04-29T09:15:54.762Z,77.44
2023-04-29T09:19:57.480Z,77.55
2023-04-29T09:24:02.025Z,77.16
2023-04-29T09:28:16.756Z,77.68
2023-04-29T09:32:23.850Z,77.13
2023-04-29T09:36:37.657Z,75.10
2023-04-29T09:40:57.586Z,74.14
2023-04-29T09:45:01.371Z,72.74
2023-04-29T09:49:06.279Z,71.88
2023-04-29T09:53:10.732Z,70.57
2023-04-29T09:57:15.634Z,69.28
2023-04-29T10:01:21.555Z,67.79
2023-04-29T10:05:29.261Z,66.75
2023-04-29T10:09:32.647Z,66.59
2023-04-29T10:13:38.202Z,65.66
2023-04-29T10:17:47.062Z,67.29
2023-04-29T10:21:51.541Z,69.45
2023-04-29T10:25:54.473Z,68.88
2023-04-29T10:29:59.795Z,68.10
2023-04-29T10:34:02.610Z,66.93
2023-04-29T10:38:12.438Z,66.32
2023-04-29T10:42:27.176Z,66.60
2023-04-29T10:46:29.808Z,66.22
2023-04-29T10:50:33.618Z,65.91
2023-04-29T10:54:37.483Z,65.29
2023-04-29T10:58:43.805Z,64.03
2023-04-29T11:02:46.525Z,63.74
2023-04-29T11:06:53.640Z,62.36
2023-04-29T11:11:01.983Z,61.56
2023-04-29T11:15:05.457Z,60.95
2023-04-29T11:19:09.503Z,61.24
2023-04-29T11:23:12.054Z,61.32
2023-04-29T11:27:16.368Z,60.09
2023-04-29T11:31:18.968Z,59.95
2023-04-29T11:35:21.843Z,58.78
2023-04-29T11:39:24.734Z,58.83
2023-04-29T11:43:28.627Z,59.80
2023-04-29T11:47:32.232Z,58.17
2023-04-29T11:51:35.725Z,58.48
2023-04-29T11:55:38.269Z,59.18
2023-04-29T11:59:43.812Z,58.17
2023-04-29T12:03:46.566Z,57.88
2023-04-29T12:07:50.326Z,59.04
2023-04-29T12:11:54.194Z,60.30
2023-04-29T12:15:59.374Z,61.97
2023-04-29T12:20:02.360Z,62.33
2023-04-29T12:24:05.269Z,63.41
2023-04-29T12:28:13.184Z,62.90
2023-04-29T12:32:22.918Z,63.73
2023-04-29T12:36:25.434Z,63.39
2023-04-29T12:40:30.182Z,62.71
2023-04-29T12:44:37.248Z,63.28
2023-04-29T12:48:43.481Z,63.21
2023-04-29T12:52:46.567Z,63.34
2023-04-29T12:56:50.526Z,63.59
2023-04-29T13:00:53.086Z,62.48
2023-04-29T13:04:57.259Z,62.05
2023-04-29T13:09:00.082Z,62.17
2023-04-29T13:13:02.624Z,61.04
2023-04-29T13:17:05.194Z,59.87
2023-04-29T13:21:09.230Z,60.50
2023-04-29T13:25:12.580Z,59.50
2023-04-29T13:29:15.005Z,59.16
2023-04-29T13:33:18.528Z,58.91
2023-04-29T13:37:22.907Z,58.00
2023-04-29T13:41:26.488Z,59.70
2023-04-29T13:45:29.277Z,59.32
2023-04-29T13:49:57.378Z,59.34
2023-04-29T13:54:48.212Z,60.07
2023-04-29T14:02:25.979Z,58.29
2023-04-29T14:06:29.331Z,57.57
2023-04-29T14:10:33.215Z,57.13
2023-04-29T14:14:35.930Z,57.68
2023-04-29T14:18:38.521Z,57.91
2023-04-29T14:22:41.071Z,57.84
2023-04-29T14:26:44.951Z,58.12
2023-04-29T14:30:47.451Z,57.75
2023-04-29T14:34:49.980Z,57.40
2023-04-29T14:38:52.579Z,57.31
2023-04-29T14:42:56.426Z,56.67
2023-04-29T14:46:58.984Z,57.14
2023-04-29T14:51:01.575Z,57.65
2023-04-29T14:55:04.401Z,57.08
2023-04-29T14:59:08.714Z,57.67
2023-04-29T15:03:20.158Z,57.17
2023-04-29T15:07:24.675Z,58.41
2023-04-29T15:11:27.370Z,57.56
2023-04-29T15:15:31.273Z,57.97
2023-04-29T15:19:33.877Z,58.89
2023-04-29T15:23:36.416Z,60.57
2023-04-29T15:27:39.446Z,60.28
2023-04-29T15:31:43.300Z,59.87
2023-04-29T15:35:46.308Z,58.89
2023-04-29T15:39:48.824Z,59.08
2023-04-29T15:43:51.691Z,58.57
2023-04-29T15:47:55.601Z,58.83
2023-04-29T15:51:58.135Z,58.64
2023-04-29T15:56:01.508Z,58.08
2023-04-29T16:00:05.276Z,58.18
2023-04-29T16:04:09.190Z,58.93
2023-04-29T16:08:11.820Z,58.55
2023-04-29T16:12:14.389Z,58.39
2023-04-29T16:16:16.998Z,58.69
2023-04-29T16:20:21.599Z,58.87
2023-04-29T16:24:24.217Z,59.01
2023-04-29T16:28:26.938Z,59.29
2023-04-29T16:32:29.514Z,59.70
2023-04-29T16:36:33.800Z,60.04
2023-04-29T16:40:36.446Z,60.36
2023-04-29T16:44:39.074Z,60.81
2023-04-29T16:48:41.711Z,59.98
2023-04-29T16:52:45.681Z,59.98
2023-04-29T16:56:50.236Z,60.06
2023-04-29T17:00:53.675Z,59.05
2023-04-29T17:04:56.513Z,58.15
2023-04-29T17:09:00.819Z,58.29
2023-04-29T17:13:03.378Z,58.48
2023-04-29T17:17:05.966Z,58.63
2023-04-29T17:21:08.694Z,58.42
2023-04-29T17:25:13.731Z,58.83
2023-04-29T17:29:16.328Z,59.35
2023-04-29T17:33:18.907Z,59.32
2023-04-29T17:37:24.844Z,59.48
2023-04-29T17:41:28.755Z,60.01
2023-04-29T17:45:31.552Z,60.31
2023-04-29T17:49:34.206Z,61.89
2023-04-29T17:53:36.742Z,62.16
2023-04-29T17:57:40.799Z,62.03
2023-04-29T18:01:43.446Z,62.00
2023-04-29T18:05:47.303Z,62.73
2023-04-29T18:09:49.897Z,63.42
2023-04-29T18:13:55.051Z,64.21
2023-04-29T18:17:57.635Z,63.88
2023-04-29T18:22:01.363Z,64.39
2023-04-29T18:26:04.281Z,65.86
2023-04-29T18:30:10.091Z,66.27
2023-04-29T18:34:12.616Z,67.37
2023-04-29T18:38:17.298Z,68.26
2023-04-29T18:42:20.352Z,68.70
2023-04-29T18:46:24.462Z,69.48
2023-04-29T18:50:27.139Z,69.70
2023-04-29T18:54:29.817Z,70.45
2023-04-29T18:58:32.372Z,70.76
2023-04-29T19:02:37.251Z,71.34
2023-04-29T19:06:39.899Z,72.26
2023-04-29T19:10:42.513Z,73.05
2023-04-29T19:14:45.059Z,73.71
2023-04-29T19:18:49.019Z,75.51
2023-04-29T19:22:51.759Z,76.30
2023-04-29T19:26:54.303Z,76.22
2023-04-29T19:30:56.932Z,75.66
2023-04-29T19:35:00.849Z,72.05
2023-04-29T19:39:04.411Z,69.44
2023-04-29T19:43:07.019Z,70.82
2023-04-29T19:47:09.568Z,72.00
2023-04-29T19:51:13.794Z,73.58
2023-04-29T19:55:16.365Z,75.35
2023-04-29T19:59:18.926Z,76.17
2023-04-29T20:03:21.639Z,76.14
2023-04-29T20:07:25.592Z,77.54
2023-04-29T20:11:28.219Z,78.08
2023-04-29T20:15:30.784Z,78.72
2023-04-29T20:19:34.806Z,79.12
2023-04-29T20:23:38.790Z,79.24
2023-04-29T20:27:42.436Z,79.26
2023-04-29T20:31:45.276Z,79.75
2023-04-29T20:35:47.910Z,80.32
2023-04-29T20:39:51.798Z,81.20
2023-04-29T20:43:54.360Z,81.56
2023-04-29T20:48:03.768Z,80.60
2023-04-29T20:52:07.247Z,79.88
2023-04-29T20:56:11.420Z,79.56
